Time;durP1;ratioP1;P1;durP2;ratioP2;P2;SDS_P1;SDS_P2;PMS_P1;PMS_P2;Temp;Humidity;BMP_temperature;BMP_pressure;BME280_temperature;BME280_humidity;BME280_pressure;Samples;Min_cycle;Max_cycle;Signal;HPM_P1;HPM_P2
2022/01/15 00:00:37;;;;;;;52.97;25.00;;;6.80;99.90;;;;;;5115621;27;20260;-78
2022/01/15 00:03:04;;;;;;;51.83;24.65;;;6.80;99.90;;;;;;5115857;28;20165;-78
2022/01/15 00:05:31;;;;;;;56.17;26.92;;;6.60;99.90;;;;;;5115570;28;20168;-79
2022/01/15 00:07:57;;;;;;;54.25;26.52;;;6.70;99.90;;;;;;5115875;28;20173;-78
2022/01/15 00:10:26;;;;;;;55.55;27.42;;;6.90;99.90;;;;;;5114453;28;20219;-79
2022/01/15 00:12:56;;;;;;;47.85;24.55;;;6.90;99.90;;;;;;5115864;28;20165;-79
2022/01/15 00:15:33;;;;;;;42.88;24.50;;;7.00;99.90;;;;;;5115797;28;20169;-86
2022/01/15 00:18:06;;;;;;;44.88;24.65;;;6.90;99.90;;;;;;5115716;28;20172;-78
2022/01/15 00:20:32;;;;;;;53.33;24.95;;;6.90;99.90;;;;;;5115565;27;20174;-79
2022/01/15 00:22:59;;;;;;;63.00;26.92;;;7.00;99.90;;;;;;5115616;28;20176;-78
2022/01/15 00:25:27;;;;;;;47.55;24.92;;;6.70;99.90;;;;;;5115362;28;20185;-79
2022/01/15 00:27:53;;;;;;;46.97;24.25;;;6.60;99.90;;;;;;5115666;28;20181;-78
2022/01/15 00:30:20;;;;;;;46.53;24.75;;;6.50;99.90;;;;;;5119950;28;20185;-77
2022/01/15 00:32:47;;;;;;;51.40;23.17;;;6.40;99.90;;;;;;5127955;28;20645;-78
2022/01/15 00:35:14;;;;;;;66.45;28.48;;;6.40;99.90;;;;;;5127734;28;20161;-77
2022/01/15 00:37:41;;;;;;;44.95;22.92;;;6.40;99.90;;;;;;5129137;28;20187;-78
2022/01/15 00:40:10;;;;;;;50.55;25.73;;;6.40;99.90;;;;;;5120939;28;20185;-79
2022/01/15 00:42:37;;;;;;;48.83;25.58;;;6.50;99.90;;;;;;5115517;28;20165;-79
2022/01/15 00:45:08;;;;;;;50.30;27.20;;;6.70;99.90;;;;;;5113719;28;20313;-79
2022/01/15 00:47:34;;;;;;;54.38;27.10;;;6.60;99.90;;;;;;5113200;28;20719;-78
2022/01/15 00:50:01;;;;;;;45.63;24.67;;;6.60;99.90;;;;;;5114684;28;20181;-78
2022/01/15 00:52:27;;;;;;;47.83;24.05;;;6.70;99.90;;;;;;5114802;27;20173;-80
2022/01/15 00:54:54;;;;;;;48.65;25.52;;;6.70;99.90;;;;;;5114743;27;20157;-78
2022/01/15 00:57:20;;;;;;;54.70;25.80;;;6.60;99.90;;;;;;5114611;28;20275;-79
2022/01/15 00:59:45;;;;;;;52.75;24.73;;;6.60;99.90;;;;;;5114532;28;20634;-79
2022/01/15 01:02:11;;;;;;;53.00;26.42;;;6.80;99.90;;;;;;5113206;28;20172;-79
2022/01/15 01:04:37;;;;;;;52.85;25.42;;;6.80;99.90;;;;;;5114353;28;20169;-82
2022/01/15 01:07:03;;;;;;;59.28;25.92;;;6.80;99.90;;;;;;5114075;28;20201;-79
2022/01/15 01:09:45;;;;;;;49.60;26.88;;;6.60;99.90;;;;;;5113033;28;20510;-79
2022/01/15 01:20:35;;;;;;;49.10;24.38;;;6.90;99.90;;;;;;5114300;28;20245;-79
2022/01/15 01:23:01;;;;;;;43.08;23.90;;;6.80;99.90;;;;;;5112759;28;20161;-78
2022/01/15 01:25:34;;;;;;;43.47;22.48;;;6.70;99.90;;;;;;5113521;28;20168;-77
2022/01/15 01:28:07;;;;;;;42.70;22.08;;;6.50;99.90;;;;;;5113270;28;20260;-78
2022/01/15 01:30:41;;;;;;;42.92;22.02;;;6.50;99.90;;;;;;5113546;28;20192;-78
2022/01/15 01:35:59;;;;;;;50.50;22.95;;;6.30;99.90;;;;;;5113597;27;20169;-78
2022/01/15 01:38:33;;;;;;;40.00;22.60;;;6.30;99.90;;;;;;5113878;28;20168;-77
2022/01/15 01:41:00;;;;;;;54.75;23.33;;;6.20;99.90;;;;;;5113796;28;20189;-77
2022/01/15 01:43:42;;;;;;;48.05;22.08;;;6.10;99.90;;;;;;5112128;28;20305;-77
2022/01/15 01:48:40;;;;;;;45.15;24.63;;;6.00;99.90;;;;;;5113612;28;20245;-77
2022/01/15 01:51:07;;;;;;;46.30;23.33;;;6.00;99.90;;;;;;5113473;27;20180;-79
2022/01/15 01:53:34;;;;;;;44.10;22.98;;;6.00;99.90;;;;;;5112484;28;20169;-77
2022/01/15 01:56:00;;;;;;;42.25;22.95;;;6.00;99.90;;;;;;5113340;28;20519;-78
2022/01/15 01:58:26;;;;;;;46.47;24.88;;;6.00;99.90;;;;;;5113460;28;20211;-78
2022/01/15 02:00:51;;;;;;;46.70;26.15;;;5.90;99.90;;;;;;5113405;28;20193;-78
2022/01/15 02:03:17;;;;;;;50.70;26.52;;;6.00;99.90;;;;;;5113301;28;20165;-78
2022/01/15 02:05:43;;;;;;;45.33;24.77;;;6.00;99.90;;;;;;5113437;28;20169;-78
2022/01/15 02:08:11;;;;;;;49.95;23.95;;;6.10;99.90;;;;;;5112101;28;20169;-81
2022/01/15 02:10:37;;;;;;;42.47;22.35;;;6.00;99.90;;;;;;5113149;28;20203;-78
2022/01/15 02:13:03;;;;;;;54.60;24.58;;;6.00;99.90;;;;;;5113522;28;20252;-78
2022/01/15 02:15:29;;;;;;;53.63;25.02;;;6.00;99.90;;;;;;5113125;28;20165;-78
2022/01/15 02:17:54;;;;;;;47.20;26.50;;;6.10;99.90;;;;;;5113508;28;20157;-78
2022/01/15 02:25:47;;;;;;;52.88;24.33;;;6.00;99.90;;;;;;5113600;28;20526;-79
2022/01/15 02:28:16;;;;;;;56.60;26.88;;;6.00;99.90;;;;;;5114076;28;20172;-79
2022/01/15 02:30:41;;;;;;;51.65;27.10;;;6.00;99.90;;;;;;5113340;28;20189;-79
2022/01/15 02:33:08;;;;;;;47.28;25.50;;;5.90;99.90;;;;;;5113042;28;20176;-78
2022/01/15 02:35:34;;;;;;;61.60;28.10;;;5.90;99.90;;;;;;5111516;28;20168;-87
2022/01/15 02:38:04;;;;;;;61.97;29.10;;;6.00;99.90;;;;;;5111664;28;20642;-79
2022/01/15 02:40:32;;;;;;;58.50;29.58;;;5.90;99.90;;;;;;5112370;28;20298;-84
2022/01/15 02:43:03;;;;;;;56.08;26.23;;;5.90;99.90;;;;;;5111979;28;20521;-79
2022/01/15 02:45:29;;;;;;;52.15;28.85;;;5.80;99.90;;;;;;5113113;28;20161;-78
2022/01/15 02:48:01;;;;;;;57.17;28.67;;;5.70;99.90;;;;;;5114307;28;20329;-79
2022/01/15 02:50:27;;;;;;;62.97;29.60;;;5.90;99.90;;;;;;5117307;28;20187;-79
2022/01/15 02:52:52;;;;;;;52.28;29.65;;;6.10;99.90;;;;;;5117295;28;20524;-79
2022/01/15 02:55:18;;;;;;;60.53;29.08;;;6.10;99.90;;;;;;5115863;28;20169;-78
2022/01/15 02:57:44;;;;;;;56.42;29.88;;;6.00;99.90;;;;;;5117544;28;20168;-78
2022/01/15 03:00:10;;;;;;;55.42;28.15;;;6.00;99.90;;;;;;5116166;28;20296;-79
2022/01/15 03:02:36;;;;;;;59.80;28.45;;;6.20;99.90;;;;;;5117534;28;20188;-79
2022/01/15 03:05:02;;;;;;;58.85;30.38;;;6.20;99.90;;;;;;5116851;28;20276;-79
2022/01/15 03:07:28;;;;;;;57.90;32.63;;;6.20;99.90;;;;;;5117337;28;20287;-79
2022/01/15 03:09:53;;;;;;;64.80;30.00;;;6.50;99.90;;;;;;5118746;28;20212;-79
2022/01/15 03:12:19;;;;;;;68.25;31.35;;;6.50;99.90;;;;;;5121741;28;20522;-79
2022/01/15 03:14:47;;;;;;;63.92;31.73;;;6.10;99.90;;;;;;5115910;28;20161;-78
2022/01/15 03:17:13;;;;;;;59.83;30.70;;;6.10;99.90;;;;;;5117027;28;20195;-80
2022/01/15 03:19:38;;;;;;;69.65;31.08;;;6.00;99.90;;;;;;5115600;28;20200;-79
2022/01/15 03:22:04;;;;;;;68.72;32.55;;;6.00;99.90;;;;;;5117298;28;20218;-79
2022/01/15 03:24:29;;;;;;;70.75;31.52;;;6.20;99.90;;;;;;5116606;28;20595;-79
2022/01/15 03:26:55;;;;;;;63.40;30.92;;;6.20;99.90;;;;;;5115451;28;20216;-79
2022/01/15 03:29:21;;;;;;;68.65;32.10;;;6.40;99.90;;;;;;5116908;28;20165;-79
2022/01/15 03:31:46;;;;;;;66.65;33.15;;;6.20;99.90;;;;;;5116877;28;20190;-79
2022/01/15 03:34:12;;;;;;;71.45;31.30;;;6.30;99.90;;;;;;5116444;28;20177;-79
2022/01/15 03:36:37;;;;;;;73.45;32.88;;;6.10;99.90;;;;;;5116712;28;20586;-78
2022/01/15 03:39:03;;;;;;;67.03;32.92;;;6.40;99.90;;;;;;5116810;28;20173;-80
2022/01/15 03:41:28;;;;;;;77.78;35.67;;;6.30;99.90;;;;;;5116750;28;20526;-78
2022/01/15 03:43:54;;;;;;;75.00;35.15;;;6.20;99.90;;;;;;5116507;28;20161;-79
2022/01/15 03:46:23;;;;;;;76.95;34.45;;;6.10;99.90;;;;;;5116082;28;20199;-80
2022/01/15 03:48:48;;;;;;;85.22;35.50;;;6.00;99.90;;;;;;5116229;28;20248;-78
2022/01/15 03:51:19;;;;;;;77.95;35.70;;;6.10;99.90;;;;;;5116148;28;20209;-79
2022/01/15 03:53:45;;;;;;;84.97;36.13;;;6.00;99.90;;;;;;5117373;28;20161;-79
2022/01/15 03:56:10;;;;;;;79.88;36.10;;;5.90;99.90;;;;;;5115146;28;20214;-79
2022/01/15 03:58:36;;;;;;;78.07;35.08;;;5.90;99.90;;;;;;5114500;28;20203;-79
2022/01/15 04:01:02;;;;;;;86.28;35.33;;;5.80;99.90;;;;;;5116215;28;20276;-79
2022/01/15 04:03:27;;;;;;;87.80;36.40;;;5.90;99.90;;;;;;5115178;28;20172;-79
2022/01/15 04:05:53;;;;;;;79.45;34.88;;;5.90;99.90;;;;;;5116151;28;20203;-79
2022/01/15 04:08:18;;;;;;;85.72;37.10;;;5.60;99.90;;;;;;5115615;28;20225;-78
2022/01/15 04:10:44;;;;;;;87.07;36.05;;;5.80;99.90;;;;;;5114623;28;20191;-79
2022/01/15 04:13:11;;;;;;;83.80;34.35;;;5.70;99.90;;;;;;5115834;28;20536;-78
2022/01/15 04:15:36;;;;;;;93.25;37.28;;;5.80;99.90;;;;;;5116031;28;20157;-79
2022/01/15 04:18:02;;;;;;;89.88;35.67;;;5.80;99.90;;;;;;5116176;28;20161;-82
2022/01/15 04:20:28;;;;;;;90.32;34.58;;;5.80;99.90;;;;;;5115336;28;20189;-79
2022/01/15 04:22:54;;;;;;;84.95;34.92;;;5.70;99.90;;;;;;5116190;28;20166;-79
2022/01/15 04:25:21;;;;;;;85.13;36.22;;;5.60;99.90;;;;;;5116122;28;20161;-83
2022/01/15 04:27:47;;;;;;;98.28;35.53;;;5.70;99.90;;;;;;5115402;28;20240;-78
2022/01/15 04:30:15;;;;;;;85.55;33.47;;;5.70;99.90;;;;;;5115631;28;20272;-79
2022/01/15 04:32:42;;;;;;;88.82;36.22;;;5.70;99.90;;;;;;5115503;28;20559;-78
2022/01/15 04:35:08;;;;;;;92.55;35.50;;;5.60;99.90;;;;;;5114140;28;20656;-79
2022/01/15 04:37:44;;;;;;;90.20;36.00;;;5.60;99.90;;;;;;5115765;28;20197;-79
2022/01/15 04:40:11;;;;;;;91.43;36.38;;;5.60;99.90;;;;;;5116072;28;20185;-78
2022/01/15 04:42:37;;;;;;;86.30;33.97;;;5.70;99.90;;;;;;5115426;28;20156;-78
2022/01/15 04:45:06;;;;;;;94.70;35.40;;;5.30;99.90;;;;;;5114857;28;20169;-79
2022/01/15 04:47:31;;;;;;;85.18;35.28;;;5.30;99.90;;;;;;5115311;28;20207;-78
2022/01/15 04:49:58;;;;;;;90.55;35.20;;;5.40;99.90;;;;;;5115662;28;20177;-79
2022/01/15 04:52:24;;;;;;;83.65;34.20;;;5.30;99.90;;;;;;5114184;28;20165;-79
2022/01/15 04:54:50;;;;;;;86.65;34.45;;;5.50;99.90;;;;;;5114090;28;20173;-79
2022/01/15 04:57:16;;;;;;;86.78;33.95;;;5.40;99.90;;;;;;5115463;28;20169;-79
2022/01/15 04:59:43;;;;;;;82.00;33.75;;;5.30;99.90;;;;;;5115410;28;20191;-79
2022/01/15 05:02:09;;;;;;;85.22;34.85;;;5.30;99.90;;;;;;5114052;28;20169;-79
2022/01/15 05:04:34;;;;;;;98.88;37.95;;;5.30;99.90;;;;;;5118705;28;20172;-79
2022/01/15 05:07:00;;;;;;;84.55;34.92;;;5.20;99.90;;;;;;5126829;28;20276;-77
2022/01/15 05:09:26;;;;;;;79.20;32.08;;;5.10;99.90;;;;;;5125278;28;20164;-77
2022/01/15 05:12:06;;;;;;;85.45;35.05;;;5.00;99.90;;;;;;5126544;28;20184;-77
2022/01/15 05:14:31;;;;;;;89.88;34.83;;;5.10;99.90;;;;;;5116848;28;20684;-78
2022/01/15 05:16:57;;;;;;;89.03;33.33;;;5.10;99.90;;;;;;5114711;28;20192;-79
2022/01/15 05:19:22;;;;;;;104.00;34.97;;;5.00;99.90;;;;;;5114243;28;20238;-79
2022/01/15 05:21:48;;;;;;;93.35;34.92;;;4.90;99.90;;;;;;5114169;28;20279;-79
2022/01/15 05:24:14;;;;;;;98.68;38.15;;;5.00;99.90;;;;;;5113972;28;20562;-79
2022/01/15 05:26:39;;;;;;;100.63;35.70;;;4.90;99.90;;;;;;5113626;28;20677;-79
2022/01/15 05:29:05;;;;;;;98.07;35.03;;;5.00;99.90;;;;;;5113837;28;20161;-81
2022/01/15 05:31:30;;;;;;;95.95;33.92;;;4.90;99.90;;;;;;5113779;28;20185;-80
2022/01/15 05:33:56;;;;;;;96.75;34.58;;;4.90;99.90;;;;;;5113043;28;20157;-82
2022/01/15 05:36:22;;;;;;;81.90;31.90;;;5.00;99.90;;;;;;5113833;28;20161;-78
2022/01/15 05:38:47;;;;;;;88.68;33.63;;;5.10;99.90;;;;;;5113596;28;20214;-79
2022/01/15 05:41:13;;;;;;;77.53;31.25;;;5.20;99.90;;;;;;5113541;28;20189;-78
2022/01/15 05:43:39;;;;;;;83.32;32.17;;;5.20;99.90;;;;;;5113523;28;20165;-78
2022/01/15 05:46:04;;;;;;;86.00;31.70;;;5.10;99.90;;;;;;5113916;28;20191;-79
2022/01/15 05:48:30;;;;;;;76.75;31.30;;;4.90;99.90;;;;;;5114060;28;20248;-79
2022/01/15 05:50:55;;;;;;;84.60;32.45;;;5.00;99.90;;;;;;5114654;28;20197;-78
2022/01/15 05:53:21;;;;;;;85.85;32.00;;;5.20;99.90;;;;;;5113305;28;20689;-79
2022/01/15 05:55:47;;;;;;;89.10;32.90;;;5.00;99.90;;;;;;5113390;28;20218;-78
2022/01/15 05:58:12;;;;;;;79.00;31.15;;;4.90;99.90;;;;;;5113803;28;20195;-78
2022/01/15 06:00:38;;;;;;;84.68;30.13;;;5.00;99.90;;;;;;5112859;28;20176;-77
2022/01/15 06:03:04;;;;;;;86.72;30.05;;;5.00;99.90;;;;;;5113294;28;20165;-78
2022/01/15 06:05:29;;;;;;;91.88;32.08;;;5.10;99.90;;;;;;5113432;28;20629;-78
2022/01/15 06:07:55;;;;;;;73.72;29.67;;;5.00;99.90;;;;;;5113318;28;20201;-78
2022/01/15 06:10:21;;;;;;;78.85;31.35;;;4.90;99.90;;;;;;5111703;28;20189;-83
2022/01/15 06:12:47;;;;;;;78.60;30.58;;;4.90;99.90;;;;;;5112826;28;20176;-78
2022/01/15 06:15:14;;;;;;;74.60;30.50;;;5.00;99.90;;;;;;5113168;28;20191;-78
2022/01/15 06:17:39;;;;;;;87.47;30.80;;;4.90;99.90;;;;;;5113036;28;20248;-79
2022/01/15 06:20:06;;;;;;;95.00;33.55;;;4.90;99.90;;;;;;5112867;28;20219;-80
2022/01/15 06:22:32;;;;;;;75.18;28.63;;;4.80;99.90;;;;;;5111436;28;20165;-78
2022/01/15 06:24:57;;;;;;;87.72;33.00;;;5.00;99.90;;;;;;5111483;28;20169;-78
2022/01/15 06:27:23;;;;;;;87.78;30.98;;;5.00;99.90;;;;;;5112403;28;20212;-78
2022/01/15 06:29:48;;;;;;;95.80;31.83;;;5.10;99.90;;;;;;5113454;28;20169;-79
2022/01/15 06:32:14;;;;;;;82.00;31.17;;;5.10;99.90;;;;;;5111729;28;20255;-78
2022/01/15 06:34:39;;;;;;;82.47;29.50;;;5.10;99.90;;;;;;5112844;28;20268;-79
2022/01/15 06:37:05;;;;;;;100.80;35.78;;;5.20;99.90;;;;;;5112998;28;20227;-79
2022/01/15 06:39:34;;;;;;;101.28;30.85;;;5.30;99.90;;;;;;5112875;28;20169;-79
2022/01/15 06:42:01;;;;;;;85.97;32.63;;;5.00;99.90;;;;;;5111659;28;20694;-79
2022/01/15 06:44:27;;;;;;;88.82;32.88;;;5.10;99.90;;;;;;5111656;28;20222;-79
2022/01/15 06:46:54;;;;;;;94.43;32.88;;;5.10;99.90;;;;;;5112647;28;20272;-78
2022/01/15 06:49:20;;;;;;;81.95;29.33;;;4.90;99.90;;;;;;5111676;28;20153;-78
2022/01/15 06:51:45;;;;;;;94.93;32.22;;;5.00;99.90;;;;;;5112642;28;20195;-79
2022/01/15 06:54:11;;;;;;;95.15;32.50;;;4.80;99.90;;;;;;5112751;28;20522;-78
2022/01/15 06:56:37;;;;;;;94.57;33.00;;;4.80;99.90;;;;;;5112731;28;20172;-79
2022/01/15 06:59:03;;;;;;;99.50;32.33;;;4.60;99.90;;;;;;5112579;28;20633;-78
2022/01/15 07:01:29;;;;;;;91.82;29.88;;;4.60;99.90;;;;;;5112594;28;20266;-78
2022/01/15 07:03:54;;;;;;;94.00;30.80;;;4.60;99.90;;;;;;5112475;28;20550;-78
2022/01/15 07:06:20;;;;;;;94.88;29.63;;;4.70;99.90;;;;;;5112874;28;20205;-78
2022/01/15 07:08:45;;;;;;;111.32;34.55;;;4.80;99.90;;;;;;5113080;28;20161;-78
2022/01/15 07:11:11;;;;;;;89.28;30.35;;;5.00;99.90;;;;;;5111846;28;20193;-78
2022/01/15 07:13:37;;;;;;;95.00;31.52;;;5.10;99.90;;;;;;5112673;28;20165;-78
2022/01/15 07:16:02;;;;;;;93.18;28.85;;;5.20;99.90;;;;;;5112855;28;20169;-79
2022/01/15 07:18:28;;;;;;;90.60;29.33;;;5.00;99.90;;;;;;5113068;28;20690;-78
2022/01/15 07:20:54;;;;;;;90.35;30.27;;;4.90;99.90;;;;;;5112984;28;20200;-78
2022/01/15 07:23:20;;;;;;;93.38;31.38;;;4.70;99.90;;;;;;5113271;28;20712;-78
2022/01/15 07:25:46;;;;;;;90.50;28.17;;;4.60;99.90;;;;;;5113019;28;20234;-85
2022/01/15 07:28:12;;;;;;;97.97;29.08;;;4.40;99.90;;;;;;5112975;28;20534;-79
2022/01/15 07:30:38;;;;;;;84.80;29.48;;;4.70;99.90;;;;;;5112820;28;20178;-79
2022/01/15 07:33:03;;;;;;;94.13;29.15;;;4.60;99.90;;;;;;5112858;28;20170;-80
2022/01/15 07:35:29;;;;;;;86.60;29.88;;;4.80;99.90;;;;;;5116324;28;20165;-78
2022/01/15 07:37:56;;;;;;;81.43;28.15;;;4.90;99.90;;;;;;5117315;28;20223;-85
2022/01/15 07:40:22;;;;;;;98.18;29.55;;;4.90;99.90;;;;;;5119875;28;20208;-83
2022/01/15 07:42:48;;;;;;;76.88;27.92;;;5.00;99.90;;;;;;5117529;28;20165;-87
2022/01/15 07:45:16;;;;;;;75.10;29.38;;;5.00;99.90;;;;;;5118175;28;20175;-81
2022/01/15 07:47:42;;;;;;;77.43;25.35;;;4.80;99.90;;;;;;5117306;28;20197;-79
2022/01/15 07:50:15;;;;;;;63.45;24.38;;;4.60;99.90;;;;;;5117652;28;20215;-78
2022/01/15 07:52:41;;;;;;;55.05;20.90;;;4.30;99.90;;;;;;5118242;28;20690;-82
2022/01/15 07:55:07;;;;;;;65.97;23.20;;;4.40;99.90;;;;;;5119443;28;20268;-79
2022/01/15 07:57:33;;;;;;;44.53;20.50;;;4.20;99.90;;;;;;5124665;28;20169;-81
2022/01/15 07:59:58;;;;;;;51.63;20.90;;;3.90;99.90;;;;;;5120237;27;20268;-84
2022/01/15 08:02:25;;;;;;;57.33;21.40;;;4.00;99.90;;;;;;5120437;28;20160;-79
2022/01/15 08:04:50;;;;;;;49.03;20.92;;;3.90;99.90;;;;;;5120310;28;20168;-78
2022/01/15 08:07:18;;;;;;;44.03;20.10;;;4.00;99.90;;;;;;5115245;28;20205;-78
2022/01/15 08:09:44;;;;;;;46.08;20.80;;;4.00;99.90;;;;;;5118888;28;20254;-78
2022/01/15 08:12:11;;;;;;;47.60;20.42;;;4.10;99.90;;;;;;5120103;28;20173;-85
2022/01/15 08:14:37;;;;;;;46.95;20.75;;;4.10;99.90;;;;;;5114997;28;20173;-82
2022/01/15 08:17:03;;;;;;;49.97;20.45;;;4.10;99.90;;;;;;5123905;28;20166;-82
2022/01/15 08:19:29;;;;;;;49.85;19.25;;;4.10;99.90;;;;;;5121762;28;20172;-78
2022/01/15 08:21:55;;;;;;;39.88;19.00;;;4.00;99.90;;;;;;5122734;28;20212;-81
2022/01/15 08:24:20;;;;;;;48.30;20.77;;;4.00;99.90;;;;;;5117698;27;20663;-79
2022/01/15 08:26:47;;;;;;;48.25;18.67;;;4.00;99.90;;;;;;5115828;28;20258;-78
2022/01/15 08:29:12;;;;;;;41.55;18.95;;;4.00;99.90;;;;;;5115563;28;20181;-78
2022/01/15 08:31:38;;;;;;;45.35;17.75;;;4.00;99.90;;;;;;5115662;28;20547;-78
2022/01/15 08:34:03;;;;;;;41.97;19.23;;;3.90;99.90;;;;;;5115654;28;20165;-78
2022/01/15 08:36:29;;;;;;;42.85;20.08;;;4.00;99.90;;;;;;5113745;28;20173;-77
2022/01/15 08:38:55;;;;;;;49.92;20.35;;;4.20;99.90;;;;;;5114479;28;20177;-83
2022/01/15 08:41:20;;;;;;;39.78;18.27;;;4.30;99.90;;;;;;5114398;28;20645;-82
2022/01/15 08:43:46;;;;;;;41.83;19.77;;;4.40;99.90;;;;;;5115593;28;20883;-79
2022/01/15 08:46:12;;;;;;;40.40;19.13;;;4.10;99.90;;;;;;5115277;28;20260;-81
2022/01/15 08:48:37;;;;;;;35.40;17.30;;;4.00;99.90;;;;;;5115065;28;20681;-80
2022/01/15 08:51:03;;;;;;;43.95;21.05;;;4.20;99.90;;;;;;5115764;28;20224;-79
2022/01/15 08:53:29;;;;;;;43.33;18.80;;;4.10;99.90;;;;;;5115442;28;21006;-78
2022/01/15 08:55:55;;;;;;;39.08;19.00;;;4.40;99.90;;;;;;5114821;28;20503;-78
2022/01/15 08:58:20;;;;;;;31.63;16.95;;;4.60;99.90;;;;;;5114904;28;20618;-78
2022/01/15 09:00:47;;;;;;;38.50;17.55;;;4.50;99.90;;;;;;5114106;28;20193;-79
2022/01/15 09:03:13;;;;;;;44.95;21.13;;;4.70;99.90;;;;;;5114174;28;20161;-77
2022/01/15 09:05:39;;;;;;;35.70;17.85;;;4.70;99.90;;;;;;5115014;28;20214;-78
2022/01/15 09:08:06;;;;;;;38.33;17.15;;;4.80;99.90;;;;;;5115025;28;20197;-83
2022/01/15 09:10:32;;;;;;;40.38;17.35;;;4.90;99.90;;;;;;5113379;28;20638;-78
2022/01/15 09:12:58;;;;;;;39.00;17.48;;;4.80;99.90;;;;;;5114353;28;20176;-83
2022/01/15 09:15:24;;;;;;;35.90;17.00;;;5.00;99.90;;;;;;5114435;28;20165;-80
2022/01/15 09:17:50;;;;;;;32.85;17.75;;;5.00;99.90;;;;;;5114156;28;20656;-83
2022/01/15 09:20:16;;;;;;;33.92;17.75;;;5.00;99.90;;;;;;5114609;28;20198;-80
2022/01/15 09:22:42;;;;;;;35.28;17.00;;;4.90;99.90;;;;;;5113348;28;20651;-80
2022/01/15 09:25:08;;;;;;;36.72;17.95;;;4.80;99.90;;;;;;5114470;28;20168;-79
2022/01/15 09:30:19;;;;;;;29.58;17.13;;;5.40;99.90;;;;;;5112928;28;20192;-79
2022/01/15 09:32:53;;;;;;;37.70;18.48;;;5.30;99.90;;;;;;5113686;28;20227;-79
2022/01/15 09:35:21;;;;;;;37.22;17.75;;;5.10;99.90;;;;;;5113753;28;20157;-79
2022/01/15 09:37:47;;;;;;;37.50;17.75;;;5.00;99.90;;;;;;5119094;28;20180;-80
2022/01/15 09:40:13;;;;;;;35.10;16.95;;;5.00;99.90;;;;;;5128168;28;20225;-79
2022/01/15 09:42:40;;;;;;;34.08;17.38;;;5.10;99.90;;;;;;5127648;28;20169;-79
2022/01/15 09:45:07;;;;;;;26.05;14.90;;;5.00;99.90;;;;;;5127569;28;20172;-78
2022/01/15 09:47:33;;;;;;;26.33;15.40;;;5.00;99.90;;;;;;5117693;28;20693;-81
2022/01/15 09:50:00;;;;;;;29.20;16.02;;;5.10;99.90;;;;;;5114502;28;20254;-78
2022/01/15 09:52:27;;;;;;;34.30;16.15;;;5.20;99.90;;;;;;5113835;28;20317;-78
2022/01/15 09:54:53;;;;;;;27.73;15.48;;;5.40;99.90;;;;;;5114278;28;20170;-79
2022/01/15 09:57:19;;;;;;;28.92;16.65;;;5.50;99.90;;;;;;5112278;28;20625;-78
2022/01/15 09:59:44;;;;;;;30.30;15.18;;;5.50;99.90;;;;;;5113758;28;20168;-78
2022/01/15 10:02:10;;;;;;;25.02;14.32;;;5.40;99.90;;;;;;5113772;28;20525;-78
2022/01/15 10:04:36;;;;;;;27.42;14.75;;;5.40;99.90;;;;;;5113576;28;20702;-78
2022/01/15 10:07:16;;;;;;;25.35;15.43;;;5.50;99.90;;;;;;5113552;28;20733;-79
2022/01/15 10:09:43;;;;;;;26.52;14.85;;;5.60;99.90;;;;;;5113503;28;20161;-88
2022/01/15 10:12:11;;;;;;;32.42;16.35;;;5.60;99.90;;;;;;5113390;28;20174;-78
2022/01/15 10:14:39;;;;;;;25.20;15.73;;;5.50;99.90;;;;;;5113901;28;20168;-79
2022/01/15 10:17:23;;;;;;;41.00;18.45;;;5.40;99.90;;;;;;5113489;28;20163;-80
2022/01/15 10:19:50;;;;;;;27.33;15.55;;;5.60;99.90;;;;;;5113193;28;20192;-79
2022/01/15 10:22:18;;;;;;;28.48;15.88;;;5.40;99.90;;;;;;5113406;28;20180;-80
2022/01/15 10:24:59;;;;;;;32.97;16.58;;;5.70;99.90;;;;;;5113463;28;20161;-79
2022/01/15 10:27:31;;;;;;;24.50;15.35;;;6.00;99.90;;;;;;5111807;28;20213;-79
2022/01/15 10:30:00;;;;;;;28.65;16.02;;;6.00;99.90;;;;;;5112926;28;20660;-78
2022/01/15 10:32:29;;;;;;;27.33;15.00;;;5.50;99.90;;;;;;5113595;28;20180;-78
2022/01/15 10:34:56;;;;;;;26.92;16.05;;;5.20;99.90;;;;;;5115353;28;20172;-79
2022/01/15 10:37:34;;;;;;;24.65;14.40;;;5.30;99.90;;;;;;5115601;28;20161;-79
2022/01/15 10:40:04;;;;;;;28.10;16.05;;;5.40;99.90;;;;;;5117284;28;20171;-79
2022/01/15 10:42:29;;;;;;;26.15;16.33;;;5.40;99.90;;;;;;5115045;28;20157;-79
2022/01/15 10:45:00;;;;;;;26.65;16.10;;;5.60;99.90;;;;;;5113624;28;20609;-79
2022/01/15 10:47:28;;;;;;;34.28;16.90;;;5.60;99.90;;;;;;5113312;28;20603;-79
2022/01/15 10:50:01;;;;;;;31.17;16.98;;;5.40;99.90;;;;;;5112150;28;20186;-79
2022/01/15 10:52:29;;;;;;;34.90;18.83;;;5.40;99.90;;;;;;5113032;28;20167;-79
2022/01/15 10:55:09;;;;;;;29.05;17.25;;;5.30;99.90;;;;;;5113032;28;20165;-79
2022/01/15 10:57:36;;;;;;;31.95;18.45;;;5.40;99.90;;;;;;5112942;28;20214;-79
2022/01/15 11:00:05;;;;;;;34.13;17.63;;;5.60;99.90;;;;;;5112956;28;20625;-79
2022/01/15 11:02:31;;;;;;;36.33;18.20;;;5.70;99.90;;;;;;5112980;28;20252;-79
2022/01/15 11:04:57;;;;;;;27.48;16.90;;;6.00;99.90;;;;;;5112834;28;20193;-79
2022/01/15 11:07:23;;;;;;;24.98;16.48;;;6.20;99.90;;;;;;5112795;28;20201;-83
2022/01/15 11:09:53;;;;;;;29.38;15.05;;;6.30;99.90;;;;;;5115453;28;20172;-79
2022/01/15 11:12:24;;;;;;;26.13;14.40;;;6.20;99.90;;;;;;5116754;28;20172;-79
2022/01/15 11:14:49;;;;;;;21.92;14.93;;;6.30;99.90;;;;;;5116649;28;20161;-80
2022/01/15 11:17:15;;;;;;;22.98;14.90;;;6.40;99.90;;;;;;5116915;28;20225;-82
2022/01/15 11:19:45;;;;;;;26.40;14.38;;;6.40;99.90;;;;;;5117008;28;20214;-78
2022/01/15 11:22:11;;;;;;;24.38;15.10;;;6.10;99.90;;;;;;5116414;28;20252;-78
2022/01/15 11:24:39;;;;;;;20.70;13.82;;;6.30;99.90;;;;;;5116516;28;20165;-78
2022/01/15 11:27:05;;;;;;;23.73;14.32;;;6.20;99.90;;;;;;5116500;28;20201;-79
2022/01/15 11:29:31;;;;;;;25.42;15.90;;;6.10;99.90;;;;;;5116463;28;20629;-80
2022/01/15 11:31:59;;;;;;;23.92;14.73;;;6.10;99.90;;;;;;5116709;28;20665;-79
2022/01/15 11:34:26;;;;;;;24.05;15.20;;;6.20;99.90;;;;;;5116933;28;20195;-77
2022/01/15 11:36:52;;;;;;;24.83;15.82;;;6.50;99.90;;;;;;5115199;28;20174;-78
2022/01/15 11:39:30;;;;;;;20.00;13.82;;;6.60;99.90;;;;;;5116504;28;20160;-78
2022/01/15 11:41:57;;;;;;;22.85;14.27;;;6.60;99.90;;;;;;5118053;28;20193;-79
2022/01/15 11:44:28;;;;;;;23.90;13.98;;;6.50;99.90;;;;;;5117269;28;20165;-78
2022/01/15 11:46:55;;;;;;;23.17;14.27;;;6.70;99.90;;;;;;5116340;28;20205;-79
2022/01/15 11:49:27;;;;;;;25.58;13.93;;;6.70;99.90;;;;;;5115260;28;20521;-78
2022/01/15 11:51:55;;;;;;;28.65;15.55;;;6.90;99.90;;;;;;5115816;28;20185;-78
2022/01/15 11:54:20;;;;;;;25.90;14.93;;;7.00;99.90;;;;;;5116467;28;20192;-78
2022/01/15 11:56:49;;;;;;;21.95;15.07;;;7.20;99.90;;;;;;5116072;28;20165;-78
2022/01/15 11:59:23;;;;;;;37.70;16.17;;;7.00;99.90;;;;;;5116198;28;20169;-78
2022/01/15 12:02:09;;;;;;;31.27;15.20;;;7.00;99.90;;;;;;5115674;28;20576;-78
2022/01/15 12:04:38;;;;;;;20.08;13.75;;;7.10;99.90;;;;;;5115063;28;20180;-78
2022/01/15 12:07:06;;;;;;;19.20;13.15;;;7.20;99.90;;;;;;5115936;28;20668;-78
2022/01/15 12:09:53;;;;;;;22.08;12.48;;;7.10;99.90;;;;;;5115835;28;20169;-79
2022/01/15 12:14:47;;;;;;;16.67;10.52;;;7.10;99.90;;;;;;5115960;28;20169;-78
2022/01/15 12:17:26;;;;;;;19.17;12.52;;;7.10;99.90;;;;;;5114638;28;20231;-78
2022/01/15 12:19:53;;;;;;;16.90;11.55;;;7.30;99.90;;;;;;5116132;28;20165;-79
2022/01/15 12:22:45;;;;;;;23.05;12.05;;;7.50;99.90;;;;;;5115991;28;20194;-78
2022/01/15 12:25:31;;;;;;;19.75;12.10;;;7.40;99.90;;;;;;5115969;28;20621;-78
2022/01/15 12:28:06;;;;;;;18.42;11.32;;;7.50;99.90;;;;;;5115488;28;20216;-78
2022/01/15 12:30:37;;;;;;;17.58;11.82;;;7.60;99.90;;;;;;5115723;28;20260;-77
2022/01/15 12:33:06;;;;;;;20.58;10.85;;;7.60;99.90;;;;;;5115670;28;20180;-78
2022/01/15 12:35:34;;;;;;;18.80;11.35;;;7.30;99.90;;;;;;5115154;28;20166;-78
2022/01/15 12:37:59;;;;;;;19.40;12.02;;;7.30;99.90;;;;;;5113672;28;20170;-80
2022/01/15 12:40:46;;;;;;;16.98;10.63;;;7.40;99.90;;;;;;5115755;28;20696;-79
2022/01/15 12:43:15;;;;;;;21.98;12.75;;;7.40;99.90;;;;;;5115000;28;20255;-78
2022/01/15 12:45:41;;;;;;;16.45;10.93;;;7.30;99.90;;;;;;5115597;28;20165;-79
2022/01/15 12:48:08;;;;;;;15.32;10.93;;;7.50;99.90;;;;;;5115922;28;20738;-79
2022/01/15 12:50:58;;;;;;;18.55;9.77;;;7.70;99.90;;;;;;5118924;28;20196;-78
2022/01/15 12:53:26;;;;;;;15.52;10.48;;;7.80;99.90;;;;;;5121298;28;20161;-85
2022/01/15 12:55:52;;;;;;;16.98;10.80;;;7.70;99.90;;;;;;5114892;28;20165;-78
2022/01/15 12:58:20;;;;;;;15.70;11.20;;;7.70;99.90;;;;;;5115031;28;20276;-79
2022/01/15 13:00:46;;;;;;;17.42;11.30;;;7.70;99.90;;;;;;5115249;28;20203;-79